sensor_id;sensor_type;location;lat;lon;timestamp;pressure;altitude;pressure_sealevel;temperature;humidity
29839;BME280;18669;53.356;-1.464;2023-07-13T00:02:42;100200.72;;;15.20;100.00
29839;BME280;18669;53.356;-1.464;2023-07-13T00:05:27;100195.84;;;15.11;100.00
29839;BME280;18669;53.356;-1.464;2023-07-13T00:08:11;100187.84;;;14.94;100.00
29839;BME280;18669;53.356;-1.464;2023-07-13T00:10:56;100196.06;;;14.87;100.00
29839;BME280;18669;53.356;-1.464;2023-07-13T00:13:42;100190.38;;;14.76;100.00
29839;BME280;18669;53.356;-1.464;2023-07-13T00:16:27;100198.59;;;14.70;100.00
29839;BME280;18669;53.356;-1.464;2023-07-13T00:19:12;100201.28;;;14.68;100.00
29839;BME280;18669;53.356;-1.464;2023-07-13T00:21:57;100196.22;;;14.64;100.00
29839;BME280;18669;53.356;-1.464;2023-07-13T00:24:42;100202.34;;;14.64;100.00
29839;BME280;18669;53.356;-1.464;2023-07-13T00:27:27;100187.25;;;14.66;100.00
29839;BME280;18669;53.356;-1.464;2023-07-13T00:30:14;100197.53;;;14.74;100.00
29839;BME280;18669;53.356;-1.464;2023-07-13T00:32:59;100188.00;;;14.70;100.00
29839;BME280;18669;53.356;-1.464;2023-07-13T00:35:45;100192.03;;;14.79;100.00
29839;BME280;18669;53.356;-1.464;2023-07-13T00:38:30;100191.59;;;14.88;100.00
29839;BME280;18669;53.356;-1.464;2023-07-13T00:41:15;100189.47;;;14.96;100.00
29839;BME280;18669;53.356;-1.464;2023-07-13T00:44:00;100190.91;;;15.03;100.00
29839;BME280;18669;53.356;-1.464;2023-07-13T00:46:45;100192.53;;;15.06;100.00
29839;BME280;18669;53.356;-1.464;2023-07-13T00:49:32;100186.91;;;15.14;100.00
29839;BME280;18669;53.356;-1.464;2023-07-13T00:52:18;100191.19;;;15.16;100.00
29839;BME280;18669;53.356;-1.464;2023-07-13T00:55:04;100187.47;;;15.20;100.00
29839;BME280;18669;53.356;-1.464;2023-07-13T00:57:49;100179.56;;;15.19;100.00
29839;BME280;18669;53.356;-1.464;2023-07-13T01:00:35;100179.00;;;15.31;100.00
29839;BME280;18669;53.356;-1.464;2023-07-13T01:03:22;100186.25;;;15.28;100.00
29839;BME280;18669;53.356;-1.464;2023-07-13T01:06:07;100179.09;;;15.30;100.00
29839;BME280;18669;53.356;-1.464;2023-07-13T01:08:53;100180.03;;;15.29;100.00
29839;BME280;18669;53.356;-1.464;2023-07-13T01:11:38;100183.59;;;15.28;100.00
29839;BME280;18669;53.356;-1.464;2023-07-13T01:14:23;100190.53;;;15.30;100.00
29839;BME280;18669;53.356;-1.464;2023-07-13T01:17:09;100203.72;;;15.32;100.00
29839;BME280;18669;53.356;-1.464;2023-07-13T01:19:55;100205.94;;;15.22;100.00
29839;BME280;18669;53.356;-1.464;2023-07-13T01:22:40;100215.59;;;15.23;100.00
29839;BME280;18669;53.356;-1.464;2023-07-13T01:25:24;100221.63;;;15.27;100.00
29839;BME280;18669;53.356;-1.464;2023-07-13T01:28:10;100222.34;;;15.30;100.00
29839;BME280;18669;53.356;-1.464;2023-07-13T01:30:57;100215.91;;;15.36;100.00
29839;BME280;18669;53.356;-1.464;2023-07-13T01:33:42;100216.25;;;15.28;100.00
29839;BME280;18669;53.356;-1.464;2023-07-13T01:36:27;100223.28;;;15.29;100.00
29839;BME280;18669;53.356;-1.464;2023-07-13T01:39:12;100220.56;;;15.31;100.00
29839;BME280;18669;53.356;-1.464;2023-07-13T01:41:57;100214.19;;;15.35;100.00
29839;BME280;18669;53.356;-1.464;2023-07-13T01:44:42;100211.59;;;15.33;100.00
29839;BME280;18669;53.356;-1.464;2023-07-13T01:47:27;100203.66;;;15.33;100.00
29839;BME280;18669;53.356;-1.464;2023-07-13T01:50:12;100197.00;;;15.25;100.00
29839;BME280;18669;53.356;-1.464;2023-07-13T01:52:57;100211.22;;;15.22;100.00
29839;BME280;18669;53.356;-1.464;2023-07-13T01:55:42;100216.47;;;15.24;100.00
29839;BME280;18669;53.356;-1.464;2023-07-13T01:58:27;100203.28;;;15.22;100.00
29839;BME280;18669;53.356;-1.464;2023-07-13T02:01:12;100208.53;;;15.24;100.00
29839;BME280;18669;53.356;-1.464;2023-07-13T02:03:57;100210.25;;;15.25;100.00
29839;BME280;18669;53.356;-1.464;2023-07-13T02:06:42;100217.28;;;15.26;100.00
29839;BME280;18669;53.356;-1.464;2023-07-13T02:09:26;100212.16;;;15.21;100.00
29839;BME280;18669;53.356;-1.464;2023-07-13T02:12:11;100222.75;;;15.21;100.00
29839;BME280;18669;53.356;-1.464;2023-07-13T02:14:56;100211.31;;;15.20;100.00
29839;BME280;18669;53.356;-1.464;2023-07-13T02:17:41;100212.25;;;15.19;100.00
29839;BME280;18669;53.356;-1.464;2023-07-13T02:20:26;100206.03;;;15.20;100.00
29839;BME280;18669;53.356;-1.464;2023-07-13T02:23:11;100202.44;;;15.21;100.00
29839;BME280;18669;53.356;-1.464;2023-07-13T02:25:57;100193.56;;;15.23;100.00
29839;BME280;18669;53.356;-1.464;2023-07-13T02:28:42;100198.13;;;15.19;100.00
29839;BME280;18669;53.356;-1.464;2023-07-13T02:31:27;100201.09;;;15.13;100.00
29839;BME280;18669;53.356;-1.464;2023-07-13T02:34:12;100198.63;;;15.08;100.00
29839;BME280;18669;53.356;-1.464;2023-07-13T02:36:57;100201.22;;;15.10;100.00
29839;BME280;18669;53.356;-1.464;2023-07-13T02:39:42;100206.81;;;15.03;100.00
29839;BME280;18669;53.356;-1.464;2023-07-13T02:42:27;100205.31;;;14.98;100.00
29839;BME280;18669;53.356;-1.464;2023-07-13T02:45:11;100205.38;;;14.96;100.00
29839;BME280;18669;53.356;-1.464;2023-07-13T02:47:58;100204.56;;;14.94;100.00
29839;BME280;18669;53.356;-1.464;2023-07-13T02:50:44;100199.22;;;14.96;100.00
29839;BME280;18669;53.356;-1.464;2023-07-13T02:53:29;100198.47;;;14.92;100.00
29839;BME280;18669;53.356;-1.464;2023-07-13T02:56:14;100197.78;;;14.88;100.00
29839;BME280;18669;53.356;-1.464;2023-07-13T02:58:59;100197.97;;;14.84;100.00
29839;BME280;18669;53.356;-1.464;2023-07-13T03:01:44;100206.06;;;14.81;100.00
29839;BME280;18669;53.356;-1.464;2023-07-13T03:04:29;100215.66;;;14.83;100.00
29839;BME280;18669;53.356;-1.464;2023-07-13T03:07:14;100209.69;;;14.78;100.00
29839;BME280;18669;53.356;-1.464;2023-07-13T03:10:00;100216.16;;;14.72;100.00
29839;BME280;18669;53.356;-1.464;2023-07-13T03:12:45;100216.38;;;14.66;100.00
29839;BME280;18669;53.356;-1.464;2023-07-13T03:15:29;100214.56;;;14.67;100.00
29839;BME280;18669;53.356;-1.464;2023-07-13T03:18:14;100216.59;;;14.61;100.00
29839;BME280;18669;53.356;-1.464;2023-07-13T03:20:59;100207.06;;;14.57;100.00
29839;BME280;18669;53.356;-1.464;2023-07-13T03:23:44;100195.03;;;14.50;100.00
29839;BME280;18669;53.356;-1.464;2023-07-13T03:26:31;100204.91;;;14.46;100.00
29839;BME280;18669;53.356;-1.464;2023-07-13T03:29:16;100204.28;;;14.40;100.00
29839;BME280;18669;53.356;-1.464;2023-07-13T03:32:00;100207.13;;;14.35;100.00
29839;BME280;18669;53.356;-1.464;2023-07-13T03:34:45;100208.19;;;14.31;100.00
29839;BME280;18669;53.356;-1.464;2023-07-13T03:37:30;100222.47;;;14.27;100.00
29839;BME280;18669;53.356;-1.464;2023-07-13T03:40:15;100222.59;;;14.24;100.00
29839;BME280;18669;53.356;-1.464;2023-07-13T03:43:00;100222.84;;;14.17;100.00
29839;BME280;18669;53.356;-1.464;2023-07-13T03:45:47;100223.88;;;14.15;100.00
29839;BME280;18669;53.356;-1.464;2023-07-13T03:48:32;100235.75;;;14.05;100.00
29839;BME280;18669;53.356;-1.464;2023-07-13T03:51:17;100225.13;;;14.06;100.00
29839;BME280;18669;53.356;-1.464;2023-07-13T03:54:03;100224.44;;;14.01;100.00
29839;BME280;18669;53.356;-1.464;2023-07-13T03:56:47;100231.44;;;14.02;100.00
29839;BME280;18669;53.356;-1.464;2023-07-13T03:59:32;100224.31;;;14.04;100.00
29839;BME280;18669;53.356;-1.464;2023-07-13T04:02:18;100226.84;;;14.07;100.00
29839;BME280;18669;53.356;-1.464;2023-07-13T04:05:03;100226.75;;;14.09;100.00
29839;BME280;18669;53.356;-1.464;2023-07-13T04:07:48;100224.06;;;14.10;100.00
29839;BME280;18669;53.356;-1.464;2023-07-13T04:10:33;100228.47;;;14.10;100.00
29839;BME280;18669;53.356;-1.464;2023-07-13T04:13:17;100240.91;;;14.08;100.00
29839;BME280;18669;53.356;-1.464;2023-07-13T04:16:02;100238.25;;;14.08;100.00
29839;BME280;18669;53.356;-1.464;2023-07-13T04:18:48;100246.19;;;14.08;100.00
29839;BME280;18669;53.356;-1.464;2023-07-13T04:21:33;100253.41;;;14.04;100.00
29839;BME280;18669;53.356;-1.464;2023-07-13T04:24:17;100250.88;;;14.01;100.00
29839;BME280;18669;53.356;-1.464;2023-07-13T04:27:02;100253.66;;;13.98;100.00
29839;BME280;18669;53.356;-1.464;2023-07-13T04:29:47;100262.41;;;14.00;100.00
29839;BME280;18669;53.356;-1.464;2023-07-13T04:32:32;100261.34;;;14.04;100.00
29839;BME280;18669;53.356;-1.464;2023-07-13T04:35:18;100257.53;;;14.11;100.00
29839;BME280;18669;53.356;-1.464;2023-07-13T04:38:05;100255.53;;;14.16;100.00
29839;BME280;18669;53.356;-1.464;2023-07-13T04:40:51;100265.69;;;14.27;100.00
29839;BME280;18669;53.356;-1.464;2023-07-13T04:43:36;100260.44;;;14.26;100.00
29839;BME280;18669;53.356;-1.464;2023-07-13T04:46:21;100263.97;;;14.26;100.00
29839;BME280;18669;53.356;-1.464;2023-07-13T04:49:06;100266.50;;;14.29;100.00
29839;BME280;18669;53.356;-1.464;2023-07-13T04:51:50;100263.03;;;14.27;100.00
29839;BME280;18669;53.356;-1.464;2023-07-13T04:54:35;100270.91;;;14.29;100.00
29839;BME280;18669;53.356;-1.464;2023-07-13T04:57:21;100280.66;;;14.28;100.00
29839;BME280;18669;53.356;-1.464;2023-07-13T05:00:07;100284.22;;;14.27;100.00
29839;BME280;18669;53.356;-1.464;2023-07-13T05:02:54;100276.00;;;14.33;100.00
29839;BME280;18669;53.356;-1.464;2023-07-13T05:05:39;100270.06;;;14.28;100.00
29839;BME280;18669;53.356;-1.464;2023-07-13T05:08:24;100286.44;;;14.37;100.00
29839;BME280;18669;53.356;-1.464;2023-07-13T05:11:09;100290.91;;;14.36;100.00
29839;BME280;18669;53.356;-1.464;2023-07-13T05:13:54;100286.44;;;14.37;100.00
29839;BME280;18669;53.356;-1.464;2023-07-13T05:16:39;100295.25;;;14.37;100.00
29839;BME280;18669;53.356;-1.464;2023-07-13T05:19:24;100292.41;;;14.42;100.00
29839;BME280;18669;53.356;-1.464;2023-07-13T05:22:08;100299.25;;;14.47;100.00
29839;BME280;18669;53.356;-1.464;2023-07-13T05:24:53;100295.72;;;14.47;100.00
29839;BME280;18669;53.356;-1.464;2023-07-13T05:27:38;100301.69;;;14.52;100.00
29839;BME280;18669;53.356;-1.464;2023-07-13T05:30:24;100310.31;;;14.57;100.00
29839;BME280;18669;53.356;-1.464;2023-07-13T05:33:09;100311.78;;;14.65;100.00
29839;BME280;18669;53.356;-1.464;2023-07-13T05:35:54;100305.38;;;14.70;100.00
29839;BME280;18669;53.356;-1.464;2023-07-13T05:38:38;100312.13;;;14.77;100.00
29839;BME280;18669;53.356;-1.464;2023-07-13T05:41:24;100311.94;;;14.82;100.00
29839;BME280;18669;53.356;-1.464;2023-07-13T05:44:09;100313.66;;;14.83;100.00
29839;BME280;18669;53.356;-1.464;2023-07-13T05:46:54;100316.75;;;14.93;100.00
29839;BME280;18669;53.356;-1.464;2023-07-13T05:49:41;100312.50;;;14.89;100.00
29839;BME280;18669;53.356;-1.464;2023-07-13T05:52:26;100326.50;;;14.93;100.00
29839;BME280;18669;53.356;-1.464;2023-07-13T05:55:11;100331.66;;;14.96;100.00
29839;BME280;18669;53.356;-1.464;2023-07-13T05:57:56;100335.59;;;15.06;100.00
29839;BME280;18669;53.356;-1.464;2023-07-13T06:00:42;100336.00;;;15.17;100.00
29839;BME280;18669;53.356;-1.464;2023-07-13T06:03:28;100337.22;;;15.29;100.00
29839;BME280;18669;53.356;-1.464;2023-07-13T06:06:15;100334.88;;;15.42;100.00
29839;BME280;18669;53.356;-1.464;2023-07-13T06:09:01;100341.41;;;15.54;100.00
29839;BME280;18669;53.356;-1.464;2023-07-13T06:11:47;100344.38;;;15.67;100.00
29839;BME280;18669;53.356;-1.464;2023-07-13T06:14:33;100353.91;;;15.90;100.00
29839;BME280;18669;53.356;-1.464;2023-07-13T06:17:19;100357.94;;;15.99;100.00
29839;BME280;18669;53.356;-1.464;2023-07-13T06:20:11;100356.66;;;16.25;100.00
29839;BME280;18669;53.356;-1.464;2023-07-13T06:23:00;100354.28;;;16.38;100.00
29839;BME280;18669;53.356;-1.464;2023-07-13T06:25:46;100358.50;;;16.43;100.00
29839;BME280;18669;53.356;-1.464;2023-07-13T06:28:31;100365.69;;;16.40;100.00
29839;BME280;18669;53.356;-1.464;2023-07-13T06:31:17;100370.78;;;16.45;100.00
29839;BME280;18669;53.356;-1.464;2023-07-13T06:34:02;100367.41;;;16.42;100.00
29839;BME280;18669;53.356;-1.464;2023-07-13T06:36:47;100364.13;;;16.54;100.00
29839;BME280;18669;53.356;-1.464;2023-07-13T06:39:32;100372.66;;;16.61;100.00
29839;BME280;18669;53.356;-1.464;2023-07-13T06:42:17;100383.44;;;16.58;100.00
29839;BME280;18669;53.356;-1.464;2023-07-13T06:45:02;100380.00;;;16.55;100.00
29839;BME280;18669;53.356;-1.464;2023-07-13T06:47:47;100384.91;;;16.46;100.00
29839;BME280;18669;53.356;-1.464;2023-07-13T06:50:33;100382.88;;;16.51;100.00
29839;BME280;18669;53.356;-1.464;2023-07-13T06:53:19;100371.03;;;16.58;100.00
29839;BME280;18669;53.356;-1.464;2023-07-13T06:56:04;100374.31;;;16.63;100.00
29839;BME280;18669;53.356;-1.464;2023-07-13T06:58:49;100371.50;;;16.66;100.00
29839;BME280;18669;53.356;-1.464;2023-07-13T07:01:34;100379.72;;;16.79;100.00
29839;BME280;18669;53.356;-1.464;2023-07-13T07:04:19;100384.63;;;16.87;100.00
29839;BME280;18669;53.356;-1.464;2023-07-13T07:07:07;100379.66;;;16.98;100.00
29839;BME280;18669;53.356;-1.464;2023-07-13T07:09:52;100382.75;;;16.89;100.00
29839;BME280;18669;53.356;-1.464;2023-07-13T07:12:37;100389.72;;;16.92;100.00
29839;BME280;18669;53.356;-1.464;2023-07-13T07:15:22;100385.50;;;17.05;100.00
29839;BME280;18669;53.356;-1.464;2023-07-13T07:18:07;100389.25;;;17.19;100.00
29839;BME280;18669;53.356;-1.464;2023-07-13T07:20:52;100384.88;;;17.18;100.00
29839;BME280;18669;53.356;-1.464;2023-07-13T07:23:37;100391.28;;;17.13;100.00
29839;BME280;18669;53.356;-1.464;2023-07-13T07:26:22;100388.59;;;17.31;100.00
29839;BME280;18669;53.356;-1.464;2023-07-13T07:29:07;100391.69;;;17.57;100.00
29839;BME280;18669;53.356;-1.464;2023-07-13T07:31:52;100393.09;;;17.80;100.00
29839;BME280;18669;53.356;-1.464;2023-07-13T07:34:37;100407.25;;;17.97;100.00
29839;BME280;18669;53.356;-1.464;2023-07-13T07:37:22;100401.47;;;18.06;100.00
29839;BME280;18669;53.356;-1.464;2023-07-13T07:40:07;100412.34;;;18.01;100.00
29839;BME280;18669;53.356;-1.464;2023-07-13T07:42:53;100413.19;;;17.86;100.00
29839;BME280;18669;53.356;-1.464;2023-07-13T07:45:39;100419.97;;;17.92;100.00
29839;BME280;18669;53.356;-1.464;2023-07-13T07:48:24;100415.00;;;18.01;100.00
29839;BME280;18669;53.356;-1.464;2023-07-13T07:51:09;100421.56;;;18.12;100.00
29839;BME280;18669;53.356;-1.464;2023-07-13T07:53:54;100419.22;;;18.22;100.00
29839;BME280;18669;53.356;-1.464;2023-07-13T07:56:39;100417.63;;;18.19;100.00
29839;BME280;18669;53.356;-1.464;2023-07-13T07:59:23;100409.28;;;18.25;100.00
29839;BME280;18669;53.356;-1.464;2023-07-13T08:02:10;100406.59;;;18.41;100.00
29839;BME280;18669;53.356;-1.464;2023-07-13T08:04:55;100415.53;;;18.56;100.00
29839;BME280;18669;53.356;-1.464;2023-07-13T08:07:39;100415.16;;;18.93;100.00
29839;BME280;18669;53.356;-1.464;2023-07-13T08:10:24;100413.06;;;19.14;100.00
29839;BME280;18669;53.356;-1.464;2023-07-13T08:13:09;100415.19;;;19.52;100.00
29839;BME280;18669;53.356;-1.464;2023-07-13T08:15:54;100406.75;;;19.89;100.00
29839;BME280;18669;53.356;-1.464;2023-07-13T08:18:39;100412.63;;;20.09;97.52
29839;BME280;18669;53.356;-1.464;2023-07-13T08:21:24;100410.34;;;19.74;98.54
29839;BME280;18669;53.356;-1.464;2023-07-13T08:24:09;100415.50;;;19.77;99.49
29839;BME280;18669;53.356;-1.464;2023-07-13T08:26:54;100421.38;;;20.11;96.23
29839;BME280;18669;53.356;-1.464;2023-07-13T08:29:39;100419.13;;;20.87;78.11
29839;BME280;18669;53.356;-1.464;2023-07-13T08:32:24;100415.09;;;20.94;78.94
29839;BME280;18669;53.356;-1.464;2023-07-13T08:35:09;100409.84;;;20.80;78.63
29839;BME280;18669;53.356;-1.464;2023-07-13T08:37:54;100408.38;;;20.74;75.00
29839;BME280;18669;53.356;-1.464;2023-07-13T08:40:39;100422.91;;;20.70;75.78
29839;BME280;18669;53.356;-1.464;2023-07-13T08:43:26;100413.72;;;21.27;72.55
29839;BME280;18669;53.356;-1.464;2023-07-13T08:49:20;100418.44;;;21.24;67.59
29839;BME280;18669;53.356;-1.464;2023-07-13T08:52:28;100421.00;;;20.72;73.74
29839;BME280;18669;53.356;-1.464;2023-07-13T08:55:18;100418.84;;;20.37;73.96
29839;BME280;18669;53.356;-1.464;2023-07-13T08:58:13;100418.44;;;21.11;68.70
29839;BME280;18669;53.356;-1.464;2023-07-13T09:04:14;100422.91;;;22.01;57.15
29839;BME280;18669;53.356;-1.464;2023-07-13T09:15:35;100414.88;;;22.98;53.94
29839;BME280;18669;53.356;-1.464;2023-07-13T09:18:38;100408.94;;;22.70;55.39
29839;BME280;18669;53.356;-1.464;2023-07-13T09:21:31;100408.81;;;23.43;52.35
29839;BME280;18669;53.356;-1.464;2023-07-13T09:24:27;100400.72;;;24.11;52.28
29839;BME280;18669;53.356;-1.464;2023-07-13T09:27:17;100402.88;;;25.15;47.03
29839;BME280;18669;53.356;-1.464;2023-07-13T09:33:00;100411.91;;;25.98;43.09
29839;BME280;18669;53.356;-1.464;2023-07-13T09:35:45;100416.50;;;25.66;45.30
29839;BME280;18669;53.356;-1.464;2023-07-13T09:38:30;100406.50;;;25.88;43.20
29839;BME280;18669;53.356;-1.464;2023-07-13T09:41:31;100406.47;;;25.78;43.00
29839;BME280;18669;53.356;-1.464;2023-07-13T09:44:36;100412.63;;;25.59;43.70
29839;BME280;18669;53.356;-1.464;2023-07-13T09:47:25;100395.44;;;25.91;42.21
29839;BME280;18669;53.356;-1.464;2023-07-13T09:50:16;100403.94;;;26.17;43.08
29839;BME280;18669;53.356;-1.464;2023-07-13T09:53:02;100409.06;;;26.40;40.85
29839;BME280;18669;53.356;-1.464;2023-07-13T09:55:48;100408.09;;;26.71;40.53
29839;BME280;18669;53.356;-1.464;2023-07-13T09:58:34;100398.19;;;26.81;39.37
29839;BME280;18669;53.356;-1.464;2023-07-13T10:01:37;100414.75;;;26.66;39.10
29839;BME280;18669;53.356;-1.464;2023-07-13T10:04:31;100414.94;;;27.52;37.76
29839;BME280;18669;53.356;-1.464;2023-07-13T10:07:16;100429.59;;;27.87;37.40
29839;BME280;18669;53.356;-1.464;2023-07-13T10:10:03;100427.22;;;28.02;36.70
29839;BME280;18669;53.356;-1.464;2023-07-13T10:12:48;100424.81;;;28.91;35.11
29839;BME280;18669;53.356;-1.464;2023-07-13T10:15:33;100429.19;;;28.74;35.97
29839;BME280;18669;53.356;-1.464;2023-07-13T10:18:19;100432.69;;;28.84;34.74
29839;BME280;18669;53.356;-1.464;2023-07-13T10:21:12;100431.94;;;28.92;35.44
29839;BME280;18669;53.356;-1.464;2023-07-13T10:24:10;100428.25;;;28.01;36.27
29839;BME280;18669;53.356;-1.464;2023-07-13T10:27:04;100429.78;;;27.76;36.97
29839;BME280;18669;53.356;-1.464;2023-07-13T10:30:27;100430.72;;;28.22;36.98
29839;BME280;18669;53.356;-1.464;2023-07-13T10:33:14;100432.75;;;28.10;36.61
29839;BME280;18669;53.356;-1.464;2023-07-13T10:36:20;100437.91;;;26.79;38.69
29839;BME280;18669;53.356;-1.464;2023-07-13T10:39:15;100450.38;;;26.00;39.07
29839;BME280;18669;53.356;-1.464;2023-07-13T10:42:06;100446.75;;;25.06;40.03
29839;BME280;18669;53.356;-1.464;2023-07-13T10:44:56;100449.25;;;23.98;42.53
29839;BME280;18669;53.356;-1.464;2023-07-13T10:47:42;100450.63;;;23.34;44.26
29839;BME280;18669;53.356;-1.464;2023-07-13T10:50:28;100439.81;;;23.81;43.10
29839;BME280;18669;53.356;-1.464;2023-07-13T10:53:32;100433.22;;;23.63;45.60
29839;BME280;18669;53.356;-1.464;2023-07-13T10:56:28;100434.09;;;23.63;45.02
29839;BME280;18669;53.356;-1.464;2023-07-13T10:59:18;100447.38;;;23.88;44.73
29839;BME280;18669;53.356;-1.464;2023-07-13T11:04:53;100444.19;;;23.94;44.85
29839;BME280;18669;53.356;-1.464;2023-07-13T11:07:54;100442.13;;;24.20;44.94
29839;BME280;18669;53.356;-1.464;2023-07-13T11:10:47;100443.56;;;24.68;43.14
29839;BME280;18669;53.356;-1.464;2023-07-13T11:16:45;100436.69;;;26.13;40.92
29839;BME280;18669;53.356;-1.464;2023-07-13T11:19:39;100445.84;;;26.71;39.58
29839;BME280;18669;53.356;-1.464;2023-07-13T11:22:44;100429.69;;;27.67;38.95
29839;BME280;18669;53.356;-1.464;2023-07-13T11:25:30;100437.00;;;27.28;39.30
29839;BME280;18669;53.356;-1.464;2023-07-13T11:28:21;100430.69;;;27.66;37.67
29839;BME280;18669;53.356;-1.464;2023-07-13T11:31:13;100431.78;;;28.76;34.95
29839;BME280;18669;53.356;-1.464;2023-07-13T11:34:00;100429.59;;;28.79;35.29
29839;BME280;18669;53.356;-1.464;2023-07-13T11:36:47;100422.34;;;29.24;35.73
29839;BME280;18669;53.356;-1.464;2023-07-13T11:39:35;100431.59;;;30.01;33.17
29839;BME280;18669;53.356;-1.464;2023-07-13T11:42:22;100424.81;;;30.05;32.87
29839;BME280;18669;53.356;-1.464;2023-07-13T11:45:22;100418.59;;;30.29;33.38
29839;BME280;18669;53.356;-1.464;2023-07-13T11:48:37;100421.97;;;30.23;34.13
29839;BME280;18669;53.356;-1.464;2023-07-13T11:51:25;100425.66;;;31.23;31.29
29839;BME280;18669;53.356;-1.464;2023-07-13T11:54:27;100419.00;;;30.92;31.38
29839;BME280;18669;53.356;-1.464;2023-07-13T12:00:14;100409.53;;;30.04;32.70
29839;BME280;18669;53.356;-1.464;2023-07-13T12:03:01;100414.47;;;30.00;32.36
29839;BME280;18669;53.356;-1.464;2023-07-13T12:08:42;100411.72;;;30.76;32.95
29839;BME280;18669;53.356;-1.464;2023-07-13T12:11:27;100395.91;;;31.05;31.49
29839;BME280;18669;53.356;-1.464;2023-07-13T12:14:13;100401.00;;;30.50;32.41
29839;BME280;18669;53.356;-1.464;2023-07-13T12:16:59;100408.63;;;30.55;32.15
29839;BME280;18669;53.356;-1.464;2023-07-13T12:19:44;100403.41;;;30.78;32.44
29839;BME280;18669;53.356;-1.464;2023-07-13T12:22:31;100403.06;;;30.98;32.36
29839;BME280;18669;53.356;-1.464;2023-07-13T12:25:16;100398.34;;;31.64;30.36
29839;BME280;18669;53.356;-1.464;2023-07-13T12:28:28;100393.78;;;31.57;30.84
29839;BME280;18669;53.356;-1.464;2023-07-13T12:34:18;100384.41;;;32.39;29.83
29839;BME280;18669;53.356;-1.464;2023-07-13T12:37:08;100399.50;;;33.41;28.39
29839;BME280;18669;53.356;-1.464;2023-07-13T12:39:56;100390.06;;;31.97;29.62
29839;BME280;18669;53.356;-1.464;2023-07-13T12:42:41;100403.31;;;29.77;32.57
29839;BME280;18669;53.356;-1.464;2023-07-13T12:45:27;100394.22;;;29.86;33.02
29839;BME280;18669;53.356;-1.464;2023-07-13T12:48:16;100389.81;;;30.45;33.77
29839;BME280;18669;53.356;-1.464;2023-07-13T12:51:01;100380.66;;;30.46;33.41
29839;BME280;18669;53.356;-1.464;2023-07-13T12:54:05;100383.91;;;30.58;33.15
29839;BME280;18669;53.356;-1.464;2023-07-13T12:56:52;100380.63;;;29.78;34.00
29839;BME280;18669;53.356;-1.464;2023-07-13T12:59:37;100375.44;;;28.79;36.74
29839;BME280;18669;53.356;-1.464;2023-07-13T13:02:29;100381.72;;;27.97;36.10
29839;BME280;18669;53.356;-1.464;2023-07-13T13:05:15;100379.50;;;27.07;38.15
29839;BME280;18669;53.356;-1.464;2023-07-13T13:08:00;100379.09;;;26.33;40.77
29839;BME280;18669;53.356;-1.464;2023-07-13T13:10:45;100377.97;;;26.26;42.10
29839;BME280;18669;53.356;-1.464;2023-07-13T13:13:30;100371.66;;;27.62;38.57
29839;BME280;18669;53.356;-1.464;2023-07-13T13:16:34;100368.19;;;28.80;36.97
29839;BME280;18669;53.356;-1.464;2023-07-13T13:19:24;100377.19;;;30.11;34.54
29839;BME280;18669;53.356;-1.464;2023-07-13T13:22:09;100382.22;;;29.54;34.93
29839;BME280;18669;53.356;-1.464;2023-07-13T13:24:54;100383.03;;;28.76;35.19
29839;BME280;18669;53.356;-1.464;2023-07-13T13:27:40;100376.47;;;27.68;38.23
29839;BME280;18669;53.356;-1.464;2023-07-13T13:30:25;100379.09;;;26.53;41.15
29839;BME280;18669;53.356;-1.464;2023-07-13T13:33:12;100387.38;;;25.91;41.73
29839;BME280;18669;53.356;-1.464;2023-07-13T13:35:57;100387.78;;;25.24;42.92
29839;BME280;18669;53.356;-1.464;2023-07-13T13:38:43;100390.66;;;25.11;44.99
29839;BME280;18669;53.356;-1.464;2023-07-13T13:41:28;100383.47;;;24.91;44.58
29839;BME280;18669;53.356;-1.464;2023-07-13T13:44:15;100378.06;;;24.91;44.93
29839;BME280;18669;53.356;-1.464;2023-07-13T13:47:01;100368.50;;;25.19;43.93
29839;BME280;18669;53.356;-1.464;2023-07-13T13:49:46;100376.47;;;25.09;45.19
29839;BME280;18669;53.356;-1.464;2023-07-13T13:52:34;100383.78;;;24.97;45.93
29839;BME280;18669;53.356;-1.464;2023-07-13T13:55:20;100380.31;;;25.38;46.77
29839;BME280;18669;53.356;-1.464;2023-07-13T13:58:05;100368.66;;;27.27;41.96
29839;BME280;18669;53.356;-1.464;2023-07-13T14:00:51;100361.94;;;27.97;40.07
29839;BME280;18669;53.356;-1.464;2023-07-13T14:03:37;100366.78;;;28.21;39.38
29839;BME280;18669;53.356;-1.464;2023-07-13T14:06:22;100370.28;;;29.12;38.70
29839;BME280;18669;53.356;-1.464;2023-07-13T14:09:11;100359.69;;;29.97;35.33
29839;BME280;18669;53.356;-1.464;2023-07-13T14:11:55;100349.28;;;29.14;37.76
29839;BME280;18669;53.356;-1.464;2023-07-13T14:14:41;100351.59;;;29.01;38.05
29839;BME280;18669;53.356;-1.464;2023-07-13T14:17:27;100356.88;;;29.11;36.82
29839;BME280;18669;53.356;-1.464;2023-07-13T14:20:12;100351.31;;;28.86;36.83
29839;BME280;18669;53.356;-1.464;2023-07-13T14:22:57;100346.69;;;28.60;37.75
29839;BME280;18669;53.356;-1.464;2023-07-13T14:25:43;100342.06;;;28.16;38.19
29839;BME280;18669;53.356;-1.464;2023-07-13T14:28:27;100347.50;;;27.60;38.80
29839;BME280;18669;53.356;-1.464;2023-07-13T14:31:14;100349.47;;;27.20;38.78
29839;BME280;18669;53.356;-1.464;2023-07-13T14:33:59;100351.41;;;26.51;39.90
29839;BME280;18669;53.356;-1.464;2023-07-13T14:36:47;100349.13;;;26.76;40.34
29839;BME280;18669;53.356;-1.464;2023-07-13T14:39:33;100355.25;;;26.58;42.56
29839;BME280;18669;53.356;-1.464;2023-07-13T14:42:18;100347.13;;;26.09;40.52
29839;BME280;18669;53.356;-1.464;2023-07-13T14:45:03;100356.44;;;25.85;39.92
29839;BME280;18669;53.356;-1.464;2023-07-13T14:47:48;100357.22;;;25.56;40.52